sensor_id;sensor_type;location;lat;lon;timestamp;P1;durP1;ratioP1;P2;durP2;ratioP2
2175;SDS011;1094;49.902;10.876;2023-02-01T00:02:04;20.27;;;19.17;;
2175;SDS011;1094;49.902;10.876;2023-02-01T00:04:30;18.93;;;18.00;;
2175;SDS011;1094;49.902;10.876;2023-02-01T00:06:56;19.30;;;18.30;;
2175;SDS011;1094;49.902;10.876;2023-02-01T00:09:22;20.47;;;19.30;;
2175;SDS011;1094;49.902;10.876;2023-02-01T00:11:48;20.10;;;19.00;;
2175;SDS011;1094;49.902;10.876;2023-02-01T00:14:13;18.87;;;17.67;;
2175;SDS011;1094;49.902;10.876;2023-02-01T00:16:41;18.83;;;17.83;;
2175;SDS011;1094;49.902;10.876;2023-02-01T00:19:10;19.80;;;18.60;;
2175;SDS011;1094;49.902;10.876;2023-02-01T00:21:36;19.63;;;18.53;;
2175;SDS011;1094;49.902;10.876;2023-02-01T00:24:02;19.23;;;18.13;;
2175;SDS011;1094;49.902;10.876;2023-02-01T00:26:32;20.50;;;18.40;;
2175;SDS011;1094;49.902;10.876;2023-02-01T00:28:59;20.30;;;19.17;;
2175;SDS011;1094;49.902;10.876;2023-02-01T00:31:24;19.60;;;18.50;;
2175;SDS011;1094;49.902;10.876;2023-02-01T00:33:50;20.30;;;19.13;;
2175;SDS011;1094;49.902;10.876;2023-02-01T00:36:16;20.37;;;19.13;;
2175;SDS011;1094;49.902;10.876;2023-02-01T00:38:43;21.17;;;19.90;;
2175;SDS011;1094;49.902;10.876;2023-02-01T00:43:39;19.53;;;18.53;;
2175;SDS011;1094;49.902;10.876;2023-02-01T00:46:05;21.00;;;19.80;;
2175;SDS011;1094;49.902;10.876;2023-02-01T00:48:31;21.10;;;19.80;;
2175;SDS011;1094;49.902;10.876;2023-02-01T00:51:00;21.63;;;20.33;;
2175;SDS011;1094;49.902;10.876;2023-02-01T00:53:27;20.60;;;19.40;;
2175;SDS011;1094;49.902;10.876;2023-02-01T00:55:53;21.77;;;20.37;;
2175;SDS011;1094;49.902;10.876;2023-02-01T00:58:19;21.10;;;19.90;;
2175;SDS011;1094;49.902;10.876;2023-02-01T01:00:45;21.57;;;19.97;;
2175;SDS011;1094;49.902;10.876;2023-02-01T01:03:11;20.77;;;19.50;;
2175;SDS011;1094;49.902;10.876;2023-02-01T01:05:46;21.40;;;20.10;;
2175;SDS011;1094;49.902;10.876;2023-02-01T01:08:13;20.33;;;19.03;;
2175;SDS011;1094;49.902;10.876;2023-02-01T01:10:40;20.20;;;19.10;;
2175;SDS011;1094;49.902;10.876;2023-02-01T01:13:06;21.10;;;19.90;;
2175;SDS011;1094;49.902;10.876;2023-02-01T01:15:35;21.73;;;20.43;;
2175;SDS011;1094;49.902;10.876;2023-02-01T01:18:01;21.80;;;20.30;;
2175;SDS011;1094;49.902;10.876;2023-02-01T01:20:28;21.33;;;20.03;;
2175;SDS011;1094;49.902;10.876;2023-02-01T01:22:54;21.20;;;20.00;;
2175;SDS011;1094;49.902;10.876;2023-02-01T01:25:20;21.50;;;20.10;;
2175;SDS011;1094;49.902;10.876;2023-02-01T01:27:46;20.60;;;19.40;;
2175;SDS011;1094;49.902;10.876;2023-02-01T01:30:12;20.93;;;19.67;;
2175;SDS011;1094;49.902;10.876;2023-02-01T01:32:38;21.00;;;19.60;;
2175;SDS011;1094;49.902;10.876;2023-02-01T01:35:04;21.43;;;20.13;;
2175;SDS011;1094;49.902;10.876;2023-02-01T01:37:31;20.40;;;19.00;;
2175;SDS011;1094;49.902;10.876;2023-02-01T01:39:57;20.10;;;18.80;;
2175;SDS011;1094;49.902;10.876;2023-02-01T01:42:23;21.40;;;19.50;;
2175;SDS011;1094;49.902;10.876;2023-02-01T01:47:30;21.17;;;19.87;;
2175;SDS011;1094;49.902;10.876;2023-02-01T01:49:58;21.23;;;19.87;;
2175;SDS011;1094;49.902;10.876;2023-02-01T01:52:24;22.00;;;19.80;;
2175;SDS011;1094;49.902;10.876;2023-02-01T01:54:50;20.67;;;19.30;;
2175;SDS011;1094;49.902;10.876;2023-02-01T01:57:18;21.00;;;19.40;;
2175;SDS011;1094;49.902;10.876;2023-02-01T01:59:49;21.90;;;20.50;;
2175;SDS011;1094;49.902;10.876;2023-02-01T02:02:16;21.40;;;20.10;;
2175;SDS011;1094;49.902;10.876;2023-02-01T02:04:42;21.47;;;20.07;;
2175;SDS011;1094;49.902;10.876;2023-02-01T02:07:10;20.10;;;18.60;;
2175;SDS011;1094;49.902;10.876;2023-02-01T02:09:37;18.87;;;17.57;;
2175;SDS011;1094;49.902;10.876;2023-02-01T02:12:03;18.93;;;17.90;;
2175;SDS011;1094;49.902;10.876;2023-02-01T02:14:29;19.60;;;18.30;;
2175;SDS011;1094;49.902;10.876;2023-02-01T02:19:48;20.27;;;18.63;;
2175;SDS011;1094;49.902;10.876;2023-02-01T02:25:21;21.97;;;20.17;;
2175;SDS011;1094;49.902;10.876;2023-02-01T02:33:00;22.17;;;20.40;;
2175;SDS011;1094;49.902;10.876;2023-02-01T02:35:34;22.47;;;20.33;;
2175;SDS011;1094;49.902;10.876;2023-02-01T02:38:09;21.40;;;20.03;;
2175;SDS011;1094;49.902;10.876;2023-02-01T02:40:49;20.63;;;19.13;;
2175;SDS011;1094;49.902;10.876;2023-02-01T02:43:23;20.83;;;19.53;;
2175;SDS011;1094;49.902;10.876;2023-02-01T02:46:23;21.77;;;20.17;;
2175;SDS011;1094;49.902;10.876;2023-02-01T02:49:12;19.90;;;18.53;;
2175;SDS011;1094;49.902;10.876;2023-02-01T02:51:42;20.17;;;18.87;;
2175;SDS011;1094;49.902;10.876;2023-02-01T02:54:29;20.33;;;18.93;;
2175;SDS011;1094;49.902;10.876;2023-02-01T02:57:31;20.30;;;18.90;;
2175;SDS011;1094;49.902;10.876;2023-02-01T03:00:21;20.27;;;18.67;;
2175;SDS011;1094;49.902;10.876;2023-02-01T03:03:06;20.20;;;18.90;;
2175;SDS011;1094;49.902;10.876;2023-02-01T03:05:51;20.43;;;19.03;;
2175;SDS011;1094;49.902;10.876;2023-02-01T03:08:18;20.00;;;18.70;;
2175;SDS011;1094;49.902;10.876;2023-02-01T03:13:20;20.87;;;19.33;;
2175;SDS011;1094;49.902;10.876;2023-02-01T03:15:51;22.10;;;20.30;;
2175;SDS011;1094;49.902;10.876;2023-02-01T03:18:44;19.67;;;18.47;;
2175;SDS011;1094;49.902;10.876;2023-02-01T03:21:08;20.40;;;19.00;;
2175;SDS011;1094;49.902;10.876;2023-02-01T03:23:36;20.33;;;18.93;;
2175;SDS011;1094;49.902;10.876;2023-02-01T03:26:03;20.90;;;19.30;;
2175;SDS011;1094;49.902;10.876;2023-02-01T03:28:31;19.87;;;18.20;;
2175;SDS011;1094;49.902;10.876;2023-02-01T03:30:58;20.17;;;18.97;;
2175;SDS011;1094;49.902;10.876;2023-02-01T03:33:24;20.27;;;18.90;;
2175;SDS011;1094;49.902;10.876;2023-02-01T03:38:21;22.43;;;20.50;;
2175;SDS011;1094;49.902;10.876;2023-02-01T03:40:51;19.43;;;18.23;;
2175;SDS011;1094;49.902;10.876;2023-02-01T03:43:17;19.63;;;18.27;;
2175;SDS011;1094;49.902;10.876;2023-02-01T03:45:46;20.03;;;18.70;;
2175;SDS011;1094;49.902;10.876;2023-02-01T03:48:15;20.30;;;18.87;;
2175;SDS011;1094;49.902;10.876;2023-02-01T03:50:46;20.80;;;19.50;;
2175;SDS011;1094;49.902;10.876;2023-02-01T03:53:14;21.23;;;19.83;;
2175;SDS011;1094;49.902;10.876;2023-02-01T03:55:41;19.30;;;18.20;;
2175;SDS011;1094;49.902;10.876;2023-02-01T04:00:33;21.20;;;19.60;;
2175;SDS011;1094;49.902;10.876;2023-02-01T04:02:59;19.47;;;18.23;;
2175;SDS011;1094;49.902;10.876;2023-02-01T04:05:25;21.60;;;19.50;;
2175;SDS011;1094;49.902;10.876;2023-02-01T04:07:51;19.20;;;18.00;;
2175;SDS011;1094;49.902;10.876;2023-02-01T04:10:17;19.27;;;18.17;;
2175;SDS011;1094;49.902;10.876;2023-02-01T04:12:43;20.90;;;19.53;;
2175;SDS011;1094;49.902;10.876;2023-02-01T04:15:09;20.73;;;19.30;;
2175;SDS011;1094;49.902;10.876;2023-02-01T04:17:35;20.27;;;18.97;;
2175;SDS011;1094;49.902;10.876;2023-02-01T04:20:01;19.37;;;18.03;;
2175;SDS011;1094;49.902;10.876;2023-02-01T04:22:27;20.30;;;18.80;;
2175;SDS011;1094;49.902;10.876;2023-02-01T04:24:53;19.80;;;18.60;;
2175;SDS011;1094;49.902;10.876;2023-02-01T04:27:19;18.83;;;17.53;;
2175;SDS011;1094;49.902;10.876;2023-02-01T04:29:45;18.33;;;17.20;;
2175;SDS011;1094;49.902;10.876;2023-02-01T04:32:11;18.90;;;17.80;;
2175;SDS011;1094;49.902;10.876;2023-02-01T04:34:37;17.97;;;16.97;;
2175;SDS011;1094;49.902;10.876;2023-02-01T04:37:03;18.63;;;17.53;;
2175;SDS011;1094;49.902;10.876;2023-02-01T04:39:29;18.03;;;17.10;;
2175;SDS011;1094;49.902;10.876;2023-02-01T04:41:55;17.07;;;16.20;;
2175;SDS011;1094;49.902;10.876;2023-02-01T04:44:21;17.40;;;16.50;;
2175;SDS011;1094;49.902;10.876;2023-02-01T04:46:47;16.70;;;15.70;;
2175;SDS011;1094;49.902;10.876;2023-02-01T04:49:13;17.97;;;16.40;;
2175;SDS011;1094;49.902;10.876;2023-02-01T04:51:40;16.63;;;15.73;;
2175;SDS011;1094;49.902;10.876;2023-02-01T04:54:06;16.27;;;15.30;;
2175;SDS011;1094;49.902;10.876;2023-02-01T04:56:32;16.83;;;15.90;;
2175;SDS011;1094;49.902;10.876;2023-02-01T04:58:59;16.43;;;15.53;;
2175;SDS011;1094;49.902;10.876;2023-02-01T05:01:27;17.13;;;16.13;;
2175;SDS011;1094;49.902;10.876;2023-02-01T05:03:53;17.70;;;16.70;;
2175;SDS011;1094;49.902;10.876;2023-02-01T05:06:19;17.77;;;16.57;;
2175;SDS011;1094;49.902;10.876;2023-02-01T05:08:45;17.67;;;16.40;;
2175;SDS011;1094;49.902;10.876;2023-02-01T05:11:10;17.03;;;15.80;;
2175;SDS011;1094;49.902;10.876;2023-02-01T05:13:56;17.00;;;16.10;;
2175;SDS011;1094;49.902;10.876;2023-02-01T05:16:22;17.90;;;16.83;;
2175;SDS011;1094;49.902;10.876;2023-02-01T05:18:48;17.47;;;16.37;;
2175;SDS011;1094;49.902;10.876;2023-02-01T05:21:14;17.70;;;16.60;;
2175;SDS011;1094;49.902;10.876;2023-02-01T05:23:40;17.07;;;16.07;;
2175;SDS011;1094;49.902;10.876;2023-02-01T05:26:25;17.80;;;16.70;;
2175;SDS011;1094;49.902;10.876;2023-02-01T05:28:51;17.83;;;16.40;;
2175;SDS011;1094;49.902;10.876;2023-02-01T05:31:17;19.10;;;17.67;;
2175;SDS011;1094;49.902;10.876;2023-02-01T05:33:43;19.03;;;17.77;;
2175;SDS011;1094;49.902;10.876;2023-02-01T05:36:09;18.73;;;17.53;;
2175;SDS011;1094;49.902;10.876;2023-02-01T05:38:35;19.60;;;18.10;;
2175;SDS011;1094;49.902;10.876;2023-02-01T05:41:00;19.10;;;17.53;;
2175;SDS011;1094;49.902;10.876;2023-02-01T05:43:26;18.13;;;16.93;;
2175;SDS011;1094;49.902;10.876;2023-02-01T05:45:52;18.93;;;17.63;;
2175;SDS011;1094;49.902;10.876;2023-02-01T05:48:18;18.53;;;17.30;;
2175;SDS011;1094;49.902;10.876;2023-02-01T05:50:45;18.37;;;17.00;;
2175;SDS011;1094;49.902;10.876;2023-02-01T05:53:11;19.57;;;17.97;;
2175;SDS011;1094;49.902;10.876;2023-02-01T05:55:37;19.23;;;17.90;;
2175;SDS011;1094;49.902;10.876;2023-02-01T05:58:03;19.97;;;18.67;;
2175;SDS011;1094;49.902;10.876;2023-02-01T06:00:29;18.87;;;17.50;;
2175;SDS011;1094;49.902;10.876;2023-02-01T06:02:55;19.00;;;17.60;;
2175;SDS011;1094;49.902;10.876;2023-02-01T06:05:21;19.40;;;17.90;;
2175;SDS011;1094;49.902;10.876;2023-02-01T06:07:47;18.83;;;17.43;;
2175;SDS011;1094;49.902;10.876;2023-02-01T06:10:14;18.57;;;17.30;;
2175;SDS011;1094;49.902;10.876;2023-02-01T06:12:40;18.00;;;16.80;;
2175;SDS011;1094;49.902;10.876;2023-02-01T06:15:06;19.77;;;17.97;;
2175;SDS011;1094;49.902;10.876;2023-02-01T06:17:32;19.10;;;17.60;;
2175;SDS011;1094;49.902;10.876;2023-02-01T06:19:58;18.77;;;17.20;;
2175;SDS011;1094;49.902;10.876;2023-02-01T06:22:24;18.20;;;16.93;;
2175;SDS011;1094;49.902;10.876;2023-02-01T06:24:50;18.70;;;17.30;;
2175;SDS011;1094;49.902;10.876;2023-02-01T06:27:16;17.43;;;16.33;;
2175;SDS011;1094;49.902;10.876;2023-02-01T06:29:42;19.00;;;17.60;;
2175;SDS011;1094;49.902;10.876;2023-02-01T06:32:08;18.73;;;17.53;;
2175;SDS011;1094;49.902;10.876;2023-02-01T06:34:34;19.77;;;17.83;;
2175;SDS011;1094;49.902;10.876;2023-02-01T06:37:02;19.10;;;17.50;;
2175;SDS011;1094;49.902;10.876;2023-02-01T06:39:28;18.40;;;16.90;;
2175;SDS011;1094;49.902;10.876;2023-02-01T06:41:53;18.63;;;17.43;;
2175;SDS011;1094;49.902;10.876;2023-02-01T06:44:19;17.33;;;16.33;;
2175;SDS011;1094;49.902;10.876;2023-02-01T06:46:45;18.73;;;17.00;;
2175;SDS011;1094;49.902;10.876;2023-02-01T06:49:11;18.13;;;16.93;;
2175;SDS011;1094;49.902;10.876;2023-02-01T06:51:37;18.53;;;16.87;;
2175;SDS011;1094;49.902;10.876;2023-02-01T06:54:03;17.83;;;16.77;;
2175;SDS011;1094;49.902;10.876;2023-02-01T06:56:29;19.33;;;18.03;;
2175;SDS011;1094;49.902;10.876;2023-02-01T06:58:56;18.23;;;17.03;;
2175;SDS011;1094;49.902;10.876;2023-02-01T07:01:22;18.40;;;17.00;;
2175;SDS011;1094;49.902;10.876;2023-02-01T07:03:49;17.70;;;16.60;;
2175;SDS011;1094;49.902;10.876;2023-02-01T07:06:15;18.50;;;17.10;;
2175;SDS011;1094;49.902;10.876;2023-02-01T07:08:42;18.50;;;17.17;;
2175;SDS011;1094;49.902;10.876;2023-02-01T07:11:09;19.30;;;18.00;;
2175;SDS011;1094;49.902;10.876;2023-02-01T07:13:35;17.87;;;16.70;;
2175;SDS011;1094;49.902;10.876;2023-02-01T07:16:02;18.20;;;17.10;;
2175;SDS011;1094;49.902;10.876;2023-02-01T07:18:28;18.63;;;17.33;;
2175;SDS011;1094;49.902;10.876;2023-02-01T07:20:55;19.07;;;17.70;;
2175;SDS011;1094;49.902;10.876;2023-02-01T07:23:21;18.53;;;17.50;;
2175;SDS011;1094;49.902;10.876;2023-02-01T07:25:47;18.33;;;17.10;;
2175;SDS011;1094;49.902;10.876;2023-02-01T07:28:13;17.87;;;16.90;;
2175;SDS011;1094;49.902;10.876;2023-02-01T07:30:39;17.90;;;16.83;;
2175;SDS011;1094;49.902;10.876;2023-02-01T07:33:06;17.77;;;16.57;;
2175;SDS011;1094;49.902;10.876;2023-02-01T07:35:32;18.40;;;17.20;;
2175;SDS011;1094;49.902;10.876;2023-02-01T07:37:58;19.50;;;17.77;;
2175;SDS011;1094;49.902;10.876;2023-02-01T07:40:24;19.60;;;18.00;;
2175;SDS011;1094;49.902;10.876;2023-02-01T07:42:54;19.70;;;18.23;;
2175;SDS011;1094;49.902;10.876;2023-02-01T07:45:20;18.40;;;17.40;;
2175;SDS011;1094;49.902;10.876;2023-02-01T07:47:46;18.03;;;17.13;;
2175;SDS011;1094;49.902;10.876;2023-02-01T07:50:12;18.63;;;17.63;;
2175;SDS011;1094;49.902;10.876;2023-02-01T07:52:38;19.00;;;17.80;;
2175;SDS011;1094;49.902;10.876;2023-02-01T07:55:07;20.87;;;19.17;;
2175;SDS011;1094;49.902;10.876;2023-02-01T07:57:33;19.00;;;17.90;;
2175;SDS011;1094;49.902;10.876;2023-02-01T07:59:59;18.97;;;17.87;;
2175;SDS011;1094;49.902;10.876;2023-02-01T08:02:44;19.10;;;17.90;;
2175;SDS011;1094;49.902;10.876;2023-02-01T08:05:10;19.07;;;17.90;;
2175;SDS011;1094;49.902;10.876;2023-02-01T08:07:36;18.60;;;17.70;;
2175;SDS011;1094;49.902;10.876;2023-02-01T08:10:02;18.80;;;17.70;;
2175;SDS011;1094;49.902;10.876;2023-02-01T08:12:30;19.03;;;17.93;;
2175;SDS011;1094;49.902;10.876;2023-02-01T08:14:56;19.50;;;17.97;;
2175;SDS011;1094;49.902;10.876;2023-02-01T08:17:22;19.37;;;17.93;;
2175;SDS011;1094;49.902;10.876;2023-02-01T08:19:48;20.23;;;18.80;;
2175;SDS011;1094;49.902;10.876;2023-02-01T08:22:14;20.13;;;18.73;;
2175;SDS011;1094;49.902;10.876;2023-02-01T08:24:40;20.70;;;18.87;;
2175;SDS011;1094;49.902;10.876;2023-02-01T08:27:06;20.60;;;19.07;;
2175;SDS011;1094;49.902;10.876;2023-02-01T08:29:32;19.30;;;18.10;;
2175;SDS011;1094;49.902;10.876;2023-02-01T08:31:58;20.90;;;18.80;;
2175;SDS011;1094;49.902;10.876;2023-02-01T08:34:24;20.97;;;18.80;;
2175;SDS011;1094;49.902;10.876;2023-02-01T08:36:51;21.07;;;19.87;;
2175;SDS011;1094;49.902;10.876;2023-02-01T08:39:22;21.77;;;20.03;;
2175;SDS011;1094;49.902;10.876;2023-02-01T08:41:48;20.67;;;19.20;;
2175;SDS011;1094;49.902;10.876;2023-02-01T08:44:34;21.67;;;20.27;;
2175;SDS011;1094;49.902;10.876;2023-02-01T08:47:00;21.23;;;19.53;;
2175;SDS011;1094;49.902;10.876;2023-02-01T08:49:26;20.60;;;19.27;;
2175;SDS011;1094;49.902;10.876;2023-02-01T08:51:52;21.50;;;19.70;;
2175;SDS011;1094;49.902;10.876;2023-02-01T08:54:18;20.67;;;19.10;;
2175;SDS011;1094;49.902;10.876;2023-02-01T08:56:43;22.27;;;20.47;;
2175;SDS011;1094;49.902;10.876;2023-02-01T08:59:09;20.17;;;18.67;;
2175;SDS011;1094;49.902;10.876;2023-02-01T09:01:35;20.30;;;18.77;;
2175;SDS011;1094;49.902;10.876;2023-02-01T09:04:01;20.03;;;18.80;;
2175;SDS011;1094;49.902;10.876;2023-02-01T09:06:27;20.23;;;19.03;;
2175;SDS011;1094;49.902;10.876;2023-02-01T09:08:53;21.37;;;19.80;;
2175;SDS011;1094;49.902;10.876;2023-02-01T09:11:19;19.80;;;18.50;;
2175;SDS011;1094;49.902;10.876;2023-02-01T09:13:46;20.87;;;19.07;;
2175;SDS011;1094;49.902;10.876;2023-02-01T09:16:12;19.97;;;18.57;;
2175;SDS011;1094;49.902;10.876;2023-02-01T09:18:38;20.40;;;19.10;;
2175;SDS011;1094;49.902;10.876;2023-02-01T09:21:04;21.00;;;19.87;;
2175;SDS011;1094;49.902;10.876;2023-02-01T09:23:30;21.33;;;19.93;;
2175;SDS011;1094;49.902;10.876;2023-02-01T09:26:03;20.70;;;19.40;;
2175;SDS011;1094;49.902;10.876;2023-02-01T09:28:29;21.60;;;20.00;;
2175;SDS011;1094;49.902;10.876;2023-02-01T09:30:56;22.67;;;20.63;;
2175;SDS011;1094;49.902;10.876;2023-02-01T09:33:22;21.77;;;20.00;;
2175;SDS011;1094;49.902;10.876;2023-02-01T09:35:49;22.63;;;20.73;;
2175;SDS011;1094;49.902;10.876;2023-02-01T09:38:14;21.83;;;20.10;;
2175;SDS011;1094;49.902;10.876;2023-02-01T09:40:42;22.07;;;20.50;;
2175;SDS011;1094;49.902;10.876;2023-02-01T09:43:28;22.33;;;20.60;;
2175;SDS011;1094;49.902;10.876;2023-02-01T09:45:59;22.23;;;20.40;;
2175;SDS011;1094;49.902;10.876;2023-02-01T09:48:34;21.37;;;19.63;;
2175;SDS011;1094;49.902;10.876;2023-02-01T09:51:02;21.63;;;19.77;;
2175;SDS011;1094;49.902;10.876;2023-02-01T09:53:38;21.90;;;20.37;;
2175;SDS011;1094;49.902;10.876;2023-02-01T09:56:18;21.70;;;19.77;;
2175;SDS011;1094;49.902;10.876;2023-02-01T09:58:52;21.20;;;19.70;;
2175;SDS011;1094;49.902;10.876;2023-02-01T10:01:21;21.17;;;19.67;;
2175;SDS011;1094;49.902;10.876;2023-02-01T10:03:48;21.27;;;19.57;;
2175;SDS011;1094;49.902;10.876;2023-02-01T10:11:32;21.83;;;20.20;;
2175;SDS011;1094;49.902;10.876;2023-02-01T10:16:51;20.73;;;19.50;;
2175;SDS011;1094;49.902;10.876;2023-02-01T10:19:24;21.33;;;20.03;;
2175;SDS011;1094;49.902;10.876;2023-02-01T10:22:12;21.20;;;19.90;;
2175;SDS011;1094;49.902;10.876;2023-02-01T10:24:45;20.80;;;19.30;;
2175;SDS011;1094;49.902;10.876;2023-02-01T10:27:13;21.37;;;19.80;;
2175;SDS011;1094;49.902;10.876;2023-02-01T10:29:41;23.50;;;20.70;;
2175;SDS011;1094;49.902;10.876;2023-02-01T10:32:51;21.30;;;19.43;;
2175;SDS011;1094;49.902;10.876;2023-02-01T10:34:58;20.73;;;19.23;;
2175;SDS011;1094;49.902;10.876;2023-02-01T10:39:52;20.97;;;19.63;;
2175;SDS011;1094;49.902;10.876;2023-02-01T10:42:18;20.23;;;18.53;;
2175;SDS011;1094;49.902;10.876;2023-02-01T10:44:45;21.30;;;19.50;;
2175;SDS011;1094;49.902;10.876;2023-02-01T10:47:13;21.47;;;20.17;;
2175;SDS011;1094;49.902;10.876;2023-02-01T10:49:56;20.23;;;19.13;;
2175;SDS011;1094;49.902;10.876;2023-02-01T10:54:55;20.10;;;18.90;;
2175;SDS011;1094;49.902;10.876;2023-02-01T10:57:23;20.60;;;19.10;;
2175;SDS011;1094;49.902;10.876;2023-02-01T10:59:51;21.00;;;19.50;;
2175;SDS011;1094;49.902;10.876;2023-02-01T11:02:27;21.43;;;19.50;;
2175;SDS011;1094;49.902;10.876;2023-02-01T11:05:05;21.67;;;19.80;;
2175;SDS011;1094;49.902;10.876;2023-02-01T11:07:34;20.93;;;19.10;;
2175;SDS011;1094;49.902;10.876;2023-02-01T11:10:01;21.63;;;19.93;;
2175;SDS011;1094;49.902;10.876;2023-02-01T11:15:12;21.77;;;20.00;;
2175;SDS011;1094;49.902;10.876;2023-02-01T11:17:40;20.70;;;19.20;;
2175;SDS011;1094;49.902;10.876;2023-02-01T11:23:11;21.13;;;19.53;;
2175;SDS011;1094;49.902;10.876;2023-02-01T11:25:38;21.77;;;19.67;;
2175;SDS011;1094;49.902;10.876;2023-02-01T11:28:12;20.43;;;19.23;;
2175;SDS011;1094;49.902;10.876;2023-02-01T11:30:40;30.53;;;20.00;;
2175;SDS011;1094;49.902;10.876;2023-02-01T11:33:09;20.73;;;19.20;;
2175;SDS011;1094;49.902;10.876;2023-02-01T11:35:38;20.20;;;18.93;;
2175;SDS011;1094;49.902;10.876;2023-02-01T11:38:10;21.17;;;19.50;;
2175;SDS011;1094;49.902;10.876;2023-02-01T11:40:37;21.50;;;19.80;;
2175;SDS011;1094;49.902;10.876;2023-02-01T11:43:08;21.60;;;19.53;;
2175;SDS011;1094;49.902;10.876;2023-02-01T11:45:34;20.80;;;19.20;;
2175;SDS011;1094;49.902;10.876;2023-02-01T11:48:02;20.60;;;19.10;;
2175;SDS011;1094;49.902;10.876;2023-02-01T11:58:06;20.43;;;19.27;;
2175;SDS011;1094;49.902;10.876;2023-02-01T12:03:06;21.33;;;19.40;;
2175;SDS011;1094;49.902;10.876;2023-02-01T12:13:55;21.77;;;19.80;;
2175;SDS011;1094;49.902;10.876;2023-02-01T12:16:32;20.67;;;19.37;;
2175;SDS011;1094;49.902;10.876;2023-02-01T12:19:04;20.37;;;19.00;;
2175;SDS011;1094;49.902;10.876;2023-02-01T12:26:57;20.30;;;18.70;;
2175;SDS011;1094;49.902;10.876;2023-02-01T12:31:57;20.53;;;18.90;;
2175;SDS011;1094;49.902;10.876;2023-02-01T12:41:50;20.53;;;19.10;;
2175;SDS011;1094;49.902;10.876;2023-02-01T12:44:19;21.20;;;19.83;;
2175;SDS011;1094;49.902;10.876;2023-02-01T12:46:49;20.33;;;19.00;;
2175;SDS011;1094;49.902;10.876;2023-02-01T12:49:26;21.07;;;19.33;;
2175;SDS011;1094;49.902;10.876;2023-02-01T12:51:57;20.33;;;19.23;;
2175;SDS011;1094;49.902;10.876;2023-02-01T12:54:38;21.00;;;19.10;;
2175;SDS011;1094;49.902;10.876;2023-02-01T12:57:10;20.77;;;19.17;;
2175;SDS011;1094;49.902;10.876;2023-02-01T12:59:46;21.10;;;19.70;;
2175;SDS011;1094;49.902;10.876;2023-02-01T13:07:18;20.07;;;18.97;;
2175;SDS011;1094;49.902;10.876;2023-02-01T13:09:47;21.40;;;19.57;;
2175;SDS011;1094;49.902;10.876;2023-02-01T13:12:25;19.87;;;18.73;;
2175;SDS011;1094;49.902;10.876;2023-02-01T13:14:57;20.90;;;19.50;;
2175;SDS011;1094;49.902;10.876;2023-02-01T13:17:30;20.83;;;19.37;;
2175;SDS011;1094;49.902;10.876;2023-02-01T13:19:58;21.03;;;19.73;;
2175;SDS011;1094;49.902;10.876;2023-02-01T13:22:26;20.53;;;19.10;;
2175;SDS011;1094;49.902;10.876;2023-02-01T13:24:55;21.10;;;19.60;;
2175;SDS011;1094;49.902;10.876;2023-02-01T13:27:22;20.83;;;19.30;;
2175;SDS011;1094;49.902;10.876;2023-02-01T13:29:54;21.30;;;19.50;;
2175;SDS011;1094;49.902;10.876;2023-02-01T13:32:34;20.60;;;19.00;;
2175;SDS011;1094;49.902;10.876;2023-02-01T13:35:08;20.90;;;19.30;;
2175;SDS011;1094;49.902;10.876;2023-02-01T13:42:51;20.90;;;19.50;;
2175;SDS011;1094;49.902;10.876;2023-02-01T13:45:22;21.30;;;19.70;;
2175;SDS011;1094;49.902;10.876;2023-02-01T13:47:50;20.80;;;19.50;;
2175;SDS011;1094;49.902;10.876;2023-02-01T13:50:28;21.10;;;19.90;;
2175;SDS011;1094;49.902;10.876;2023-02-01T13:52:56;21.60;;;19.60;;
2175;SDS011;1094;49.902;10.876;2023-02-01T13:55:24;21.10;;;19.63;;
2175;SDS011;1094;49.902;10.876;2023-02-01T14:00:39;20.20;;;18.90;;
2175;SDS011;1094;49.902;10.876;2023-02-01T14:26:21;21.07;;;19.83;;
2175;SDS011;1094;49.902;10.876;2023-02-01T14:28:52;21.07;;;19.70;;
2175;SDS011;1094;49.902;10.876;2023-02-01T14:31:39;21.90;;;20.33;;
2175;SDS011;1094;49.902;10.876;2023-02-01T14:34:29;20.77;;;19.17;;
2175;SDS011;1094;49.902;10.876;2023-02-01T14:36:58;21.53;;;19.73;;
2175;SDS011;1094;49.902;10.876;2023-02-01T14:44:47;21.07;;;19.47;;
2175;SDS011;1094;49.902;10.876;2023-02-01T14:50:08;22.77;;;20.40;;
2175;SDS011;1094;49.902;10.876;2023-02-01T14:52:37;20.93;;;19.43;;
2175;SDS011;1094;49.902;10.876;2023-02-01T14:55:09;20.67;;;19.40;;
2175;SDS011;1094;49.902;10.876;2023-02-01T14:57:37;20.97;;;19.50;;
2175;SDS011;1094;49.902;10.876;2023-02-01T15:00:07;20.80;;;19.40;;
2175;SDS011;1094;49.902;10.876;2023-02-01T15:02:34;21.57;;;19.73;;
2175;SDS011;1094;49.902;10.876;2023-02-01T15:05:12;20.70;;;19.00;;
2175;SDS011;1094;49.902;10.876;2023-02-01T15:07:40;19.37;;;18.20;;
2175;SDS011;1094;49.902;10.876;2023-02-01T15:10:06;20.50;;;19.20;;
2175;SDS011;1094;49.902;10.876;2023-02-01T15:12:32;20.00;;;18.70;;
2175;SDS011;1094;49.902;10.876;2023-02-01T15:15:16;21.07;;;19.73;;
2175;SDS011;1094;49.902;10.876;2023-02-01T15:17:48;20.93;;;19.73;;
2175;SDS011;1094;49.902;10.876;2023-02-01T15:20:18;22.00;;;20.47;;
2175;SDS011;1094;49.902;10.876;2023-02-01T15:22:59;21.50;;;20.10;;
2175;SDS011;1094;49.902;10.876;2023-02-01T15:25:29;21.57;;;20.10;;
2175;SDS011;1094;49.902;10.876;2023-02-01T15:27:56;20.93;;;19.43;;
2175;SDS011;1094;49.902;10.876;2023-02-01T15:30:29;21.57;;;19.97;;
2175;SDS011;1094;49.902;10.876;2023-02-01T15:35:41;21.53;;;20.07;;
2175;SDS011;1094;49.902;10.876;2023-02-01T15:38:18;21.87;;;20.10;;
2175;SDS011;1094;49.902;10.876;2023-02-01T15:40:58;21.10;;;19.90;;
2175;SDS011;1094;49.902;10.876;2023-02-01T15:43:24;21.00;;;19.60;;
2175;SDS011;1094;49.902;10.876;2023-02-01T15:45:51;20.50;;;19.30;;
2175;SDS011;1094;49.902;10.876;2023-02-01T15:48:20;21.63;;;19.70;;
2175;SDS011;1094;49.902;10.876;2023-02-01T15:50:47;20.00;;;18.90;;
2175;SDS011;1094;49.902;10.876;2023-02-01T15:53:16;20.50;;;18.90;;
2175;SDS011;1094;49.902;10.876;2023-02-01T15:55:43;19.73;;;18.53;;
2175;SDS011;1094;49.902;10.876;2023-02-01T15:58:16;20.47;;;19.17;;
2175;SDS011;1094;49.902;10.876;2023-02-01T16:00:43;20.97;;;19.23;;
2175;SDS011;1094;49.902;10.876;2023-02-01T16:05:59;21.30;;;19.63;;
2175;SDS011;1094;49.902;10.876;2023-02-01T16:08:26;19.30;;;18.10;;
2175;SDS011;1094;49.902;10.876;2023-02-01T16:10:58;20.37;;;18.87;;
2175;SDS011;1094;49.902;10.876;2023-02-01T16:13:29;19.97;;;18.67;;
2175;SDS011;1094;49.902;10.876;2023-02-01T16:15:54;20.63;;;19.30;;
2175;SDS011;1094;49.902;10.876;2023-02-01T16:18:20;21.47;;;19.47;;
2175;SDS011;1094;49.902;10.876;2023-02-01T16:20:47;20.23;;;18.90;;
2175;SDS011;1094;49.902;10.876;2023-02-01T16:23:13;21.03;;;19.50;;
2175;SDS011;1094;49.902;10.876;2023-02-01T16:25:39;21.30;;;19.37;;
2175;SDS011;1094;49.902;10.876;2023-02-01T16:28:05;22.03;;;20.60;;
2175;SDS011;1094;49.902;10.876;2023-02-01T16:30:32;21.63;;;19.50;;
2175;SDS011;1094;49.902;10.876;2023-02-01T16:32:58;21.77;;;20.00;;
2175;SDS011;1094;49.902;10.876;2023-02-01T16:35:36;20.30;;;18.33;;
2175;SDS011;1094;49.902;10.876;2023-02-01T16:38:09;20.60;;;19.40;;
2175;SDS011;1094;49.902;10.876;2023-02-01T16:40:38;21.00;;;19.43;;
2175;SDS011;1094;49.902;10.876;2023-02-01T16:43:14;22.50;;;20.10;;
2175;SDS011;1094;49.902;10.876;2023-02-01T16:45:40;19.97;;;18.70;;
2175;SDS011;1094;49.902;10.876;2023-02-01T16:48:10;20.83;;;19.53;;
2175;SDS011;1094;49.902;10.876;2023-02-01T16:50:40;21.00;;;19.30;;